createdAt,value
2023-06-19T00:00:01.593Z,550.59
2023-06-19T00:00:12.593Z,550.67
2023-06-19T00:00:23.721Z,550.70
2023-06-19T00:00:34.601Z,550.67
2023-06-19T00:00:46.569Z,550.65
2023-06-19T00:00:57.592Z,550.56
2023-06-19T00:01:08.589Z,550.65
2023-06-19T00:01:19.633Z,550.62
2023-06-19T00:01:31.597Z,550.43
2023-06-19T00:01:42.644Z,550.62
2023-06-19T00:01:53.588Z,550.75
2023-06-19T00:02:05.614Z,550.78
2023-06-19T00:02:17.655Z,550.83
2023-06-19T00:02:28.632Z,550.70
2023-06-19T00:02:40.633Z,550.74
2023-06-19T00:02:51.622Z,550.84
2023-06-19T00:03:02.616Z,550.94
2023-06-19T00:03:13.604Z,550.85
2023-06-19T00:03:24.555Z,551.05
2023-06-19T00:03:35.579Z,550.92
2023-06-19T00:03:46.650Z,550.88
2023-06-19T00:03:58.620Z,550.96
2023-06-19T00:04:09.608Z,551.01
2023-06-19T00:04:20.701Z,550.96
2023-06-19T00:04:32.650Z,550.97
2023-06-19T00:04:43.573Z,551.07
2023-06-19T00:04:54.578Z,551.13
2023-06-19T00:05:05.593Z,551.09
2023-06-19T00:05:16.581Z,551.07
2023-06-19T00:05:27.610Z,551.17
2023-06-19T00:05:39.568Z,551.19
2023-06-19T00:05:51.556Z,551.32
2023-06-19T00:06:02.566Z,551.24
2023-06-19T00:06:13.580Z,551.23
2023-06-19T00:06:24.587Z,551.28
2023-06-19T00:06:35.592Z,551.33
2023-06-19T00:06:46.591Z,551.42
2023-06-19T00:06:57.593Z,551.46
2023-06-19T00:07:08.589Z,551.35
2023-06-19T00:07:19.569Z,551.34
2023-06-19T00:07:31.595Z,551.28
2023-06-19T00:07:42.592Z,551.34
2023-06-19T00:07:54.556Z,551.31
2023-06-19T00:08:05.539Z,551.43
2023-06-19T00:08:16.538Z,551.43
2023-06-19T00:08:27.547Z,551.22
2023-06-19T00:08:38.623Z,551.33
2023-06-19T00:08:50.572Z,551.34
2023-06-19T00:09:02.604Z,551.36
2023-06-19T00:09:14.576Z,551.33
2023-06-19T00:09:25.567Z,551.34
2023-06-19T00:09:36.576Z,551.39
2023-06-19T00:09:47.568Z,551.32
2023-06-19T00:09:58.566Z,551.39
2023-06-19T00:10:09.558Z,551.32
2023-06-19T00:10:20.549Z,551.21
2023-06-19T00:10:31.562Z,551.36
2023-06-19T00:10:42.559Z,551.56
2023-06-19T00:10:53.555Z,551.36
2023-06-19T00:11:04.537Z,551.21
2023-06-19T00:11:15.556Z,551.30
2023-06-19T00:11:26.562Z,551.35
2023-06-19T00:11:37.557Z,551.42
2023-06-19T00:11:48.577Z,551.47
2023-06-19T00:11:59.570Z,551.42
2023-06-19T00:12:10.565Z,551.39
2023-06-19T00:12:21.555Z,551.60
2023-06-19T00:12:32.539Z,551.55
2023-06-19T00:12:43.536Z,551.60
2023-06-19T00:12:54.537Z,551.61
2023-06-19T00:13:05.628Z,551.65
2023-06-19T00:13:17.583Z,551.74
2023-06-19T00:13:28.590Z,551.63
2023-06-19T00:13:40.572Z,551.68
2023-06-19T00:13:51.571Z,551.79
2023-06-19T00:14:03.587Z,551.90
2023-06-19T00:14:15.568Z,551.88
2023-06-19T00:14:26.609Z,551.89
2023-06-19T00:14:38.560Z,551.74
2023-06-19T00:14:49.559Z,551.82
2023-06-19T00:15:00.566Z,551.85
2023-06-19T00:15:11.562Z,551.86
2023-06-19T00:15:22.579Z,551.84
2023-06-19T00:15:33.571Z,551.82
2023-06-19T00:15:44.571Z,551.93
2023-06-19T00:15:55.633Z,551.86
2023-06-19T00:16:07.664Z,551.81
2023-06-19T00:16:19.573Z,551.85
2023-06-19T00:16:30.649Z,551.80
2023-06-19T00:16:42.721Z,551.84
2023-06-19T00:16:54.562Z,551.79
2023-06-19T00:17:05.569Z,551.66
2023-06-19T00:17:16.568Z,551.80
2023-06-19T00:17:27.685Z,551.77
2023-06-19T00:17:39.641Z,551.68
2023-06-19T00:17:50.638Z,551.78
2023-06-19T00:18:02.581Z,551.75
2023-06-19T00:18:14.563Z,551.67
2023-06-19T00:18:25.566Z,551.78
2023-06-19T00:18:36.555Z,551.81
2023-06-19T00:18:47.554Z,551.84
2023-06-19T00:18:58.528Z,551.78
2023-06-19T00:19:09.560Z,551.78
2023-06-19T00:19:20.559Z,551.87
2023-06-19T00:19:31.621Z,552.07
2023-06-19T00:19:43.566Z,552.09
2023-06-19T00:19:54.559Z,551.85
2023-06-19T00:20:05.552Z,551.93
2023-06-19T00:20:16.585Z,552.17
2023-06-19T00:20:27.576Z,551.95
2023-06-19T00:20:38.566Z,552.08
2023-06-19T00:20:49.555Z,552.05
2023-06-19T00:21:00.551Z,552.07
2023-06-19T00:21:11.546Z,551.94
2023-06-19T00:21:22.536Z,551.90
2023-06-19T00:21:33.550Z,551.97
2023-06-19T00:21:44.554Z,551.99
2023-06-19T00:21:55.555Z,552.17
2023-06-19T00:22:06.559Z,552.08
2023-06-19T00:22:17.562Z,552.10
2023-06-19T00:22:28.579Z,552.12
2023-06-19T00:22:39.575Z,552.07
2023-06-19T00:22:50.572Z,552.01
2023-06-19T00:23:01.564Z,552.08
2023-06-19T00:23:12.567Z,552.11
2023-06-19T00:23:23.579Z,552.32
2023-06-19T00:23:34.576Z,552.26
2023-06-19T00:23:45.590Z,552.15
2023-06-19T00:23:56.614Z,552.14
2023-06-19T00:24:08.712Z,552.15
2023-06-19T00:24:19.586Z,552.16
2023-06-19T00:24:30.653Z,552.27
2023-06-19T00:24:41.605Z,552.27
2023-06-19T00:24:52.565Z,552.26
2023-06-19T00:25:03.548Z,552.12
2023-06-19T00:25:14.597Z,552.22
2023-06-19T00:25:25.592Z,552.21
2023-06-19T00:25:36.599Z,552.27
2023-06-19T00:25:48.573Z,552.24
2023-06-19T00:25:59.563Z,552.12
2023-06-19T00:26:10.574Z,552.19
2023-06-19T00:26:21.564Z,552.19
2023-06-19T00:26:32.555Z,552.23
2023-06-19T00:26:43.542Z,552.14
2023-06-19T00:26:54.557Z,552.32
2023-06-19T00:27:05.549Z,552.37
2023-06-19T00:27:16.543Z,552.20
2023-06-19T00:27:27.540Z,552.06
2023-06-19T00:27:38.625Z,552.25
2023-06-19T00:27:50.567Z,552.14
2023-06-19T00:28:01.609Z,552.15
2023-06-19T00:28:13.568Z,552.17
2023-06-19T00:28:24.579Z,552.26
2023-06-19T00:28:35.578Z,552.38
2023-06-19T00:28:47.557Z,552.28
2023-06-19T00:28:58.555Z,552.31
2023-06-19T00:29:09.551Z,552.31
2023-06-19T00:29:20.557Z,552.42
2023-06-19T00:29:31.567Z,552.45
2023-06-19T00:29:42.577Z,552.46
2023-06-19T00:29:53.569Z,552.56
2023-06-19T00:30:04.558Z,552.61
2023-06-19T00:30:15.552Z,552.56
2023-06-19T00:30:26.613Z,552.49
2023-06-19T00:30:37.568Z,552.51
2023-06-19T00:30:48.605Z,552.60
2023-06-19T00:31:00.578Z,552.66
2023-06-19T00:31:11.583Z,552.77
2023-06-19T00:31:22.586Z,552.76
2023-06-19T00:31:33.586Z,552.79
2023-06-19T00:31:44.596Z,552.82
2023-06-19T00:31:55.584Z,552.78
2023-06-19T00:32:06.565Z,552.90
2023-06-19T00:32:17.594Z,552.90
2023-06-19T00:32:29.590Z,552.78
2023-06-19T00:32:40.622Z,552.80
2023-06-19T00:32:52.622Z,552.95
2023-06-19T00:33:04.627Z,552.88
2023-06-19T00:33:16.608Z,552.95
2023-06-19T00:33:27.588Z,552.91
2023-06-19T00:33:38.577Z,553.06
2023-06-19T00:33:49.568Z,552.94
2023-06-19T00:34:00.555Z,552.91
2023-06-19T00:34:11.552Z,552.94
2023-06-19T00:34:22.552Z,553.02
2023-06-19T00:34:33.582Z,552.92
2023-06-19T00:34:44.568Z,552.93
2023-06-19T00:34:55.564Z,553.06
2023-06-19T00:35:06.567Z,553.11
2023-06-19T00:35:17.569Z,553.11
2023-06-19T00:35:28.595Z,553.05
2023-06-19T00:35:40.561Z,552.94
2023-06-19T00:35:51.571Z,552.91
2023-06-19T00:36:02.565Z,553.05
2023-06-19T00:36:13.557Z,552.98
2023-06-19T00:36:24.611Z,553.14
2023-06-19T00:36:35.551Z,553.16
2023-06-19T00:36:46.550Z,553.22
2023-06-19T00:36:57.623Z,553.06
2023-06-19T00:37:08.616Z,552.99
2023-06-19T00:37:20.584Z,553.01
2023-06-19T00:37:31.565Z,553.09
2023-06-19T00:37:42.568Z,553.16
2023-06-19T00:37:53.560Z,553.08
2023-06-19T00:38:04.550Z,553.01
2023-06-19T00:38:15.551Z,553.09
2023-06-19T00:38:26.553Z,553.06
2023-06-19T00:38:37.544Z,552.86
2023-06-19T00:38:48.531Z,553.02
2023-06-19T00:38:59.533Z,553.16
2023-06-19T00:39:10.553Z,553.12
2023-06-19T00:39:21.537Z,553.13
2023-06-19T00:39:32.536Z,553.21
2023-06-19T00:39:44.821Z,553.20
2023-06-19T00:39:54.559Z,553.14
2023-06-19T00:40:05.583Z,553.05
2023-06-19T00:40:16.587Z,553.19
2023-06-19T00:40:27.590Z,553.30
2023-06-19T00:40:39.598Z,553.31
2023-06-19T00:40:51.573Z,553.25
2023-06-19T00:41:02.590Z,553.27
2023-06-19T00:41:14.551Z,553.20
2023-06-19T00:41:25.548Z,553.45
2023-06-19T00:41:36.619Z,553.48
2023-06-19T00:41:48.598Z,553.45
2023-06-19T00:41:59.594Z,553.56
2023-06-19T00:42:10.584Z,553.48
2023-06-19T00:42:21.581Z,553.48
2023-06-19T00:42:32.603Z,553.58
2023-06-19T00:42:44.564Z,553.66
2023-06-19T00:42:55.561Z,553.67
2023-06-19T00:43:06.562Z,553.67
2023-06-19T00:43:17.561Z,553.72
2023-06-19T00:43:28.560Z,553.61
2023-06-19T00:43:39.551Z,553.59
2023-06-19T00:43:50.547Z,553.83
2023-06-19T00:44:01.553Z,553.91
2023-06-19T00:44:12.553Z,553.75
2023-06-19T00:44:23.557Z,553.51
2023-06-19T00:44:34.551Z,553.99
2023-06-19T00:44:46.571Z,554.00
2023-06-19T00:44:58.570Z,554.06
2023-06-19T00:45:09.578Z,554.02
2023-06-19T00:45:21.570Z,554.03
2023-06-19T00:45:32.618Z,553.92
2023-06-19T00:45:44.599Z,553.94
2023-06-19T00:45:55.663Z,554.02
2023-06-19T00:46:07.592Z,553.99
2023-06-19T00:46:18.558Z,554.11
2023-06-19T00:46:30.582Z,554.12
2023-06-19T00:46:41.590Z,554.00
2023-06-19T00:46:52.593Z,554.09
2023-06-19T00:47:03.580Z,554.02
2023-06-19T00:47:14.574Z,554.10
2023-06-19T00:47:25.681Z,554.17
2023-06-19T00:47:36.609Z,554.09
2023-06-19T00:47:47.599Z,554.32
2023-06-19T00:47:59.680Z,554.27
2023-06-19T00:48:11.577Z,554.16
2023-06-19T00:48:22.553Z,554.11
2023-06-19T00:48:33.549Z,554.10
2023-06-19T00:48:44.535Z,554.17
2023-06-19T00:48:55.526Z,554.20
2023-06-19T00:49:06.610Z,554.25
2023-06-19T00:49:18.569Z,554.18
2023-06-19T00:49:29.553Z,554.25
2023-06-19T00:49:40.549Z,554.16
2023-06-19T00:49:51.543Z,554.14
2023-06-19T00:50:02.625Z,554.16
2023-06-19T00:50:14.584Z,554.03
2023-06-19T00:50:25.892Z,554.15
2023-06-19T00:50:37.596Z,554.09
2023-06-19T00:50:48.606Z,554.03
2023-06-19T00:51:00.564Z,553.99
2023-06-19T00:51:11.585Z,554.22
2023-06-19T00:51:23.555Z,554.02
2023-06-19T00:51:34.585Z,554.10
2023-06-19T00:51:45.578Z,554.10
2023-06-19T00:51:56.585Z,554.15
2023-06-19T00:52:08.561Z,553.96
2023-06-19T00:52:19.555Z,553.99
2023-06-19T00:52:30.554Z,553.97
2023-06-19T00:52:41.535Z,553.95
2023-06-19T00:52:52.536Z,554.05
2023-06-19T00:53:03.672Z,554.13
2023-06-19T00:53:15.627Z,554.03
2023-06-19T00:53:27.586Z,553.98
2023-06-19T00:53:38.588Z,554.08
2023-06-19T00:53:49.568Z,554.12
2023-06-19T00:54:00.573Z,554.08
2023-06-19T00:54:11.559Z,554.03
2023-06-19T00:54:22.558Z,554.11
2023-06-19T00:54:33.564Z,554.12
2023-06-19T00:54:44.560Z,554.17
2023-06-19T00:54:55.553Z,554.22
2023-06-19T00:55:06.545Z,554.24
2023-06-19T00:55:17.532Z,554.24
2023-06-19T00:55:28.618Z,554.30
2023-06-19T00:55:40.589Z,554.44
2023-06-19T00:55:51.587Z,554.43
2023-06-19T00:56:02.588Z,554.44
2023-06-19T00:56:13.598Z,554.49
2023-06-19T00:56:24.591Z,554.54
2023-06-19T00:56:35.587Z,554.44
2023-06-19T00:56:47.594Z,554.57
2023-06-19T00:56:58.581Z,554.56
2023-06-19T00:57:09.560Z,554.57
2023-06-19T00:57:20.563Z,554.73
2023-06-19T00:57:31.553Z,554.68
2023-06-19T00:57:42.556Z,554.64
2023-06-19T00:57:53.562Z,554.77
2023-06-19T00:58:04.587Z,554.83
2023-06-19T00:58:16.557Z,554.88
2023-06-19T00:58:27.562Z,554.75
2023-06-19T00:58:38.559Z,554.79
2023-06-19T00:58:49.541Z,554.75
2023-06-19T00:59:00.525Z,554.90
2023-06-19T00:59:11.522Z,554.86
2023-06-19T00:59:22.607Z,554.87
2023-06-19T00:59:34.569Z,554.98
2023-06-19T00:59:45.575Z,554.99
2023-06-19T00:59:56.565Z,554.99
2023-06-19T01:00:07.576Z,554.97
2023-06-19T01:00:18.565Z,554.94
2023-06-19T01:00:29.577Z,554.92
2023-06-19T01:00:40.590Z,554.93
2023-06-19T01:01:03.855Z,555.05
2023-06-19T01:01:09.390Z,555.10
2023-06-19T01:01:15.555Z,555.02
2023-06-19T01:01:25.595Z,555.17
2023-06-19T01:01:36.648Z,555.10
2023-06-19T01:01:47.625Z,555.08
2023-06-19T01:01:59.643Z,555.15
2023-06-19T01:02:10.742Z,555.21
2023-06-19T01:02:21.670Z,555.20
2023-06-19T01:02:33.601Z,555.12
2023-06-19T01:02:44.641Z,555.20
2023-06-19T01:02:55.737Z,555.26
2023-06-19T01:03:07.606Z,555.21
2023-06-19T01:03:19.146Z,555.25
2023-06-19T01:03:29.690Z,555.25
2023-06-19T01:03:41.719Z,555.33
2023-06-19T01:03:53.730Z,555.25
2023-06-19T01:04:05.831Z,555.27
2023-06-19T01:04:17.688Z,555.34
2023-06-19T01:04:28.594Z,555.32
2023-06-19T01:04:40.643Z,555.46
2023-06-19T01:04:52.624Z,555.56
2023-06-19T01:05:04.618Z,555.54
2023-06-19T01:05:16.562Z,555.49
2023-06-19T01:05:27.566Z,555.53
2023-06-19T01:05:38.577Z,555.60
2023-06-19T01:05:49.589Z,555.73
2023-06-19T01:06:00.577Z,555.84
2023-06-19T01:06:11.563Z,555.81
2023-06-19T01:06:22.559Z,555.82
2023-06-19T01:06:33.544Z,555.72
2023-06-19T01:06:44.561Z,555.74
2023-06-19T01:06:55.589Z,555.77
2023-06-19T01:07:06.579Z,555.81
2023-06-19T01:07:17.579Z,555.81
2023-06-19T01:07:28.574Z,556.12
2023-06-19T01:07:39.553Z,556.20
2023-06-19T01:07:50.543Z,556.22
2023-06-19T01:08:01.644Z,556.15
2023-06-19T01:08:12.537Z,556.12
2023-06-19T01:08:23.589Z,556.19
2023-06-19T01:08:35.556Z,556.21
2023-06-19T01:08:46.567Z,556.27
2023-06-19T01:08:57.570Z,556.35
2023-06-19T01:09:08.566Z,556.45
2023-06-19T01:09:19.570Z,556.60
2023-06-19T01:09:30.565Z,556.67
2023-06-19T01:09:41.563Z,556.66
2023-06-19T01:09:52.559Z,556.63
2023-06-19T01:10:03.583Z,556.49
2023-06-19T01:10:14.583Z,556.45
2023-06-19T01:10:25.798Z,556.53
2023-06-19T01:10:37.596Z,556.59
2023-06-19T01:10:49.556Z,556.61
2023-06-19T01:11:00.753Z,556.67
2023-06-19T01:11:24.989Z,556.72
2023-06-19T01:11:27.734Z,556.64
2023-06-19T01:11:35.604Z,556.63
2023-06-19T01:11:47.568Z,556.71
2023-06-19T01:11:58.562Z,556.68
2023-06-19T01:12:09.541Z,556.72
2023-06-19T01:12:20.560Z,556.73
2023-06-19T01:12:31.556Z,556.59
2023-06-19T01:12:42.544Z,556.67
2023-06-19T01:12:53.624Z,556.65
2023-06-19T01:13:05.606Z,556.74
2023-06-19T01:13:16.590Z,556.68
2023-06-19T01:13:27.589Z,556.52
2023-06-19T01:13:38.612Z,556.61
2023-06-19T01:13:50.564Z,556.81
2023-06-19T01:14:01.565Z,557.00
2023-06-19T01:14:12.587Z,557.00
2023-06-19T01:14:24.591Z,556.93
2023-06-19T01:14:35.613Z,556.94
2023-06-19T01:14:47.580Z,556.83
2023-06-19T01:14:58.579Z,556.74
2023-06-19T01:15:09.557Z,556.78
2023-06-19T01:15:20.557Z,556.79
2023-06-19T01:15:31.561Z,556.74
2023-06-19T01:15:42.551Z,557.04
2023-06-19T01:15:53.587Z,556.80
2023-06-19T01:16:04.581Z,556.85
2023-06-19T01:16:15.636Z,556.89
2023-06-19T01:16:26.593Z,556.79
2023-06-19T01:16:38.642Z,556.99
2023-06-19T01:16:49.623Z,557.02
2023-06-19T01:17:00.643Z,557.10
2023-06-19T01:17:12.616Z,557.02
2023-06-19T01:17:23.714Z,557.15
2023-06-19T01:17:34.595Z,557.09
2023-06-19T01:17:46.602Z,557.21
2023-06-19T01:17:58.657Z,557.13
2023-06-19T01:18:09.590Z,557.02
2023-06-19T01:18:21.572Z,556.97
2023-06-19T01:18:32.553Z,557.09
2023-06-19T01:18:43.546Z,557.26
2023-06-19T01:18:54.532Z,557.16
2023-06-19T01:19:05.530Z,557.21
2023-06-19T01:19:16.533Z,557.20
2023-06-19T01:19:27.540Z,557.23
2023-06-19T01:19:38.628Z,557.38
2023-06-19T01:19:50.577Z,557.45
2023-06-19T01:20:01.576Z,557.41
2023-06-19T01:20:12.564Z,557.38
2023-06-19T01:20:23.920Z,557.35
2023-06-19T01:20:35.582Z,557.44
2023-06-19T01:20:46.611Z,557.37
2023-06-19T01:20:58.577Z,557.28
2023-06-19T01:21:09.552Z,557.35
2023-06-19T01:21:20.532Z,557.51
2023-06-19T01:21:31.545Z,557.54
2023-06-19T01:21:42.536Z,557.52
2023-06-19T01:21:53.530Z,557.58
2023-06-19T01:22:04.623Z,557.47
2023-06-19T01:22:16.570Z,557.50
2023-06-19T01:22:27.566Z,557.57
2023-06-19T01:22:38.546Z,557.66
2023-06-19T01:22:49.540Z,557.62
2023-06-19T01:23:00.563Z,557.59
2023-06-19T01:23:11.600Z,557.55
2023-06-19T01:23:23.554Z,557.42
2023-06-19T01:23:34.542Z,557.65
2023-06-19T01:23:45.532Z,557.62
2023-06-19T01:23:56.677Z,557.61
2023-06-19T01:24:08.613Z,557.53
2023-06-19T01:24:20.611Z,557.54
2023-06-19T01:24:32.607Z,557.64
2023-06-19T01:24:43.669Z,557.71
2023-06-19T01:24:55.646Z,557.61
2023-06-19T01:25:07.598Z,557.62
2023-06-19T01:25:18.572Z,557.51
2023-06-19T01:25:29.556Z,557.55
2023-06-19T01:25:40.680Z,557.53
2023-06-19T01:25:51.638Z,557.68
2023-06-19T01:26:03.585Z,557.60
2023-06-19T01:26:14.570Z,557.47
2023-06-19T01:26:25.575Z,557.47
2023-06-19T01:26:36.575Z,557.49
2023-06-19T01:26:47.573Z,557.61
2023-06-19T01:26:58.558Z,557.66
2023-06-19T01:27:09.554Z,557.59
2023-06-19T01:27:20.570Z,557.59
2023-06-19T01:27:31.588Z,557.60
2023-06-19T01:27:42.598Z,557.54
2023-06-19T01:27:54.562Z,557.62
2023-06-19T01:28:05.575Z,557.65
2023-06-19T01:28:16.568Z,557.60
2023-06-19T01:28:27.551Z,557.73
2023-06-19T01:28:38.539Z,557.65
2023-06-19T01:28:49.622Z,557.66
2023-06-19T01:29:01.599Z,557.73
2023-06-19T01:29:13.561Z,557.57
2023-06-19T01:29:24.541Z,557.52
2023-06-19T01:29:35.544Z,557.73
2023-06-19T01:29:46.549Z,557.81
2023-06-19T01:29:57.543Z,557.70
2023-06-19T01:30:08.552Z,557.76
2023-06-19T01:30:19.528Z,558.01
2023-06-19T01:30:30.545Z,558.12
2023-06-19T01:30:41.556Z,558.01
2023-06-19T01:30:52.576Z,557.96
2023-06-19T01:31:03.579Z,557.89
2023-06-19T01:31:14.570Z,558.03
2023-06-19T01:31:25.546Z,557.81
2023-06-19T01:31:36.576Z,558.06
2023-06-19T01:31:47.571Z,557.98
2023-06-19T01:31:58.570Z,557.91
2023-06-19T01:32:09.602Z,558.01
2023-06-19T01:32:20.587Z,558.04
2023-06-19T01:32:31.633Z,557.99
2023-06-19T01:32:42.634Z,557.81
2023-06-19T01:32:53.588Z,557.80
2023-06-19T01:33:05.630Z,558.09
2023-06-19T01:33:16.548Z,557.98
2023-06-19T01:33:27.604Z,557.89
2023-06-19T01:33:38.610Z,557.79
2023-06-19T01:33:49.602Z,557.68
2023-06-19T01:34:01.597Z,557.77
2023-06-19T01:34:13.568Z,557.84
2023-06-19T01:34:24.571Z,557.77
2023-06-19T01:34:39.326Z,557.70
2023-06-19T01:34:48.570Z,557.67
2023-06-19T01:34:59.568Z,557.65
2023-06-19T01:35:10.568Z,557.60
2023-06-19T01:35:21.537Z,557.50
2023-06-19T01:35:32.535Z,557.70
2023-06-19T01:35:43.560Z,557.67
2023-06-19T01:35:54.549Z,557.68
2023-06-19T01:36:05.546Z,557.60
2023-06-19T01:36:16.534Z,557.60
2023-06-19T01:36:27.635Z,557.52
2023-06-19T01:36:39.571Z,557.73
2023-06-19T01:36:50.584Z,557.73
2023-06-19T01:37:01.591Z,557.77
2023-06-19T01:37:12.701Z,557.84
2023-06-19T01:37:23.600Z,557.74
2023-06-19T01:37:35.602Z,557.89
2023-06-19T01:37:47.649Z,558.02
2023-06-19T01:37:58.627Z,558.03
2023-06-19T01:38:09.575Z,558.06
2023-06-19T01:38:20.572Z,558.15
2023-06-19T01:38:31.569Z,558.23
2023-06-19T01:38:42.577Z,558.30
2023-06-19T01:38:53.572Z,558.35
2023-06-19T01:39:04.574Z,558.37
2023-06-19T01:39:15.568Z,558.48
2023-06-19T01:39:26.561Z,558.53
2023-06-19T01:39:37.548Z,558.58
2023-06-19T01:39:48.536Z,558.55
2023-06-19T01:39:59.616Z,558.68
2023-06-19T01:40:10.596Z,558.74
2023-06-19T01:40:22.822Z,558.74
2023-06-19T01:40:34.569Z,558.74
2023-06-19T01:40:45.551Z,558.77
2023-06-19T01:40:56.623Z,558.64
2023-06-19T01:41:08.608Z,558.85
2023-06-19T01:41:20.573Z,558.84
2023-06-19T01:41:31.569Z,558.91
2023-06-19T01:41:42.574Z,558.97
2023-06-19T01:41:53.619Z,558.82
2023-06-19T01:42:04.545Z,558.77
2023-06-19T01:42:15.565Z,558.85
2023-06-19T01:42:26.562Z,558.91
2023-06-19T01:42:37.557Z,558.93
2023-06-19T01:42:48.553Z,558.95
2023-06-19T01:42:59.541Z,558.85
2023-06-19T01:43:10.540Z,558.97
2023-06-19T01:43:21.537Z,559.12
2023-06-19T01:43:32.573Z,559.02
2023-06-19T01:43:44.559Z,559.08
2023-06-19T01:43:55.551Z,559.08
2023-06-19T01:44:06.537Z,559.07
2023-06-19T01:44:17.543Z,558.92
2023-06-19T01:44:28.556Z,559.00
2023-06-19T01:44:39.558Z,558.99
2023-06-19T01:44:50.558Z,559.15
2023-06-19T01:45:01.566Z,559.10
2023-06-19T01:45:12.547Z,558.95
2023-06-19T01:45:23.627Z,558.89
2023-06-19T01:45:35.586Z,558.82
2023-06-19T01:45:46.608Z,558.82
2023-06-19T01:45:58.573Z,558.82
2023-06-19T01:46:10.596Z,558.84
2023-06-19T01:46:22.575Z,558.75
2023-06-19T01:46:33.625Z,558.69
2023-06-19T01:46:44.610Z,558.67
2023-06-19T01:46:55.618Z,558.65
2023-06-19T01:47:07.596Z,558.75
2023-06-19T01:47:18.578Z,558.78
2023-06-19T01:47:29.629Z,558.81
2023-06-19T01:47:41.686Z,558.81
2023-06-19T01:47:53.627Z,558.60
2023-06-19T01:48:05.629Z,558.78
2023-06-19T01:48:16.537Z,558.71
2023-06-19T01:48:27.626Z,558.63
2023-06-19T01:48:39.586Z,558.71
2023-06-19T01:48:50.575Z,558.94
2023-06-19T01:49:01.580Z,558.74
2023-06-19T01:49:12.590Z,558.77
2023-06-19T01:49:23.598Z,558.74
2023-06-19T01:49:35.591Z,558.73
2023-06-19T01:49:46.575Z,558.78
2023-06-19T01:49:57.558Z,558.76
2023-06-19T01:50:08.545Z,558.80
2023-06-19T01:50:19.558Z,558.84
2023-06-19T01:50:30.567Z,558.76
2023-06-19T01:50:41.554Z,558.79
2023-06-19T01:50:52.562Z,558.72
2023-06-19T01:51:03.560Z,558.69
2023-06-19T01:51:14.547Z,558.68
2023-06-19T01:51:25.560Z,558.64
2023-06-19T01:51:36.557Z,558.65
2023-06-19T01:51:47.536Z,558.60
2023-06-19T01:51:58.525Z,558.56
2023-06-19T01:52:09.629Z,558.49
2023-06-19T01:52:21.585Z,558.50
2023-06-19T01:52:32.572Z,558.45
2023-06-19T01:52:43.561Z,558.43
2023-06-19T01:52:54.563Z,558.39
2023-06-19T01:53:05.556Z,558.44
2023-06-19T01:53:16.547Z,558.45
2023-06-19T01:53:27.554Z,558.46
2023-06-19T01:53:38.543Z,558.39
2023-06-19T01:53:49.635Z,558.29
2023-06-19T01:54:01.590Z,558.31
2023-06-19T01:54:12.577Z,558.34
2023-06-19T01:54:23.549Z,558.42
2023-06-19T01:54:34.555Z,558.17
2023-06-19T01:54:45.543Z,558.22
2023-06-19T01:54:56.542Z,558.39
2023-06-19T01:55:07.582Z,558.35
2023-06-19T01:55:18.585Z,558.35
2023-06-19T01:55:30.574Z,558.33
2023-06-19T01:55:41.593Z,558.37
2023-06-19T01:55:53.581Z,558.36
2023-06-19T01:56:04.567Z,558.36
2023-06-19T01:56:15.577Z,558.36
2023-06-19T01:56:26.570Z,558.38
2023-06-19T01:56:37.556Z,558.36
2023-06-19T01:56:48.548Z,558.34
2023-06-19T01:56:59.634Z,558.37
2023-06-19T01:57:11.610Z,558.26
2023-06-19T01:57:22.601Z,558.28
2023-06-19T01:57:33.594Z,558.23
2023-06-19T01:57:45.573Z,558.03
2023-06-19T01:57:56.576Z,558.31
2023-06-19T01:58:07.576Z,558.15
2023-06-19T01:58:18.581Z,558.13
2023-06-19T01:58:29.583Z,558.09
2023-06-19T01:58:40.590Z,558.06
2023-06-19T01:58:51.600Z,558.03
2023-06-19T01:59:02.593Z,558.03
2023-06-19T01:59:13.594Z,557.89
2023-06-19T01:59:24.586Z,557.88
2023-06-19T01:59:35.596Z,557.85
2023-06-19T01:59:46.592Z,557.90
2023-06-19T01:59:58.573Z,557.96
2023-06-19T02:00:09.586Z,557.94
2023-06-19T02:00:21.764Z,557.86
2023-06-19T02:00:32.544Z,557.79
2023-06-19T02:00:43.549Z,557.65
2023-06-19T02:00:54.552Z,557.73
2023-06-19T02:01:05.627Z,557.75
2023-06-19T02:01:17.594Z,557.72
2023-06-19T02:01:28.582Z,557.67
2023-06-19T02:01:39.585Z,557.59
2023-06-19T02:01:50.584Z,557.73
2023-06-19T02:02:01.592Z,557.78
2023-06-19T02:02:13.562Z,557.72
2023-06-19T02:02:24.591Z,557.70
2023-06-19T02:02:36.599Z,557.69
2023-06-19T02:02:47.667Z,557.67
2023-06-19T02:02:58.662Z,557.70
2023-06-19T02:03:09.698Z,557.77
2023-06-19T02:03:21.621Z,557.65
2023-06-19T02:03:32.659Z,557.72
2023-06-19T02:03:43.710Z,557.69
2023-06-19T02:03:55.607Z,557.69
2023-06-19T02:04:06.552Z,557.70
2023-06-19T02:04:17.564Z,557.87
2023-06-19T02:04:28.548Z,557.83
2023-06-19T02:04:39.545Z,557.84
2023-06-19T02:04:50.538Z,557.80
2023-06-19T02:05:01.541Z,557.77
2023-06-19T02:05:12.551Z,557.75
2023-06-19T02:05:23.568Z,557.77
2023-06-19T02:05:34.571Z,557.74
2023-06-19T02:05:45.560Z,557.80
2023-06-19T02:05:56.601Z,557.78
2023-06-19T02:06:08.556Z,557.80
2023-06-19T02:06:19.556Z,557.86
2023-06-19T02:06:30.553Z,557.99
2023-06-19T02:06:41.593Z,557.88
2023-06-19T02:06:52.571Z,557.92
2023-06-19T02:07:03.588Z,557.99
2023-06-19T02:07:14.589Z,557.91
2023-06-19T02:07:26.572Z,557.97
2023-06-19T02:07:37.571Z,558.12
2023-06-19T02:07:48.546Z,558.13
2023-06-19T02:07:59.538Z,558.09
2023-06-19T02:08:10.662Z,558.09
2023-06-19T02:08:22.548Z,558.13
2023-06-19T02:08:33.543Z,558.12
2023-06-19T02:08:44.620Z,558.14
2023-06-19T02:08:56.573Z,558.16
2023-06-19T02:09:07.568Z,558.13
2023-06-19T02:09:18.580Z,558.08
2023-06-19T02:09:29.590Z,558.05
2023-06-19T02:09:40.589Z,558.12
2023-06-19T02:09:51.584Z,558.06
2023-06-19T02:10:02.583Z,558.03
2023-06-19T02:10:13.576Z,557.96
2023-06-19T02:10:24.748Z,558.07
2023-06-19T02:10:35.538Z,558.07
2023-06-19T02:10:46.529Z,558.11
2023-06-19T02:10:57.532Z,558.00
2023-06-19T02:11:08.532Z,557.90
2023-06-19T02:11:19.653Z,557.86
2023-06-19T02:11:31.604Z,558.04
2023-06-19T02:11:43.577Z,558.07
2023-06-19T02:11:54.554Z,558.05
2023-06-19T02:12:05.540Z,557.89
2023-06-19T02:12:16.543Z,557.88
2023-06-19T02:12:27.561Z,557.96
2023-06-19T02:12:38.548Z,557.89
2023-06-19T02:12:49.553Z,557.91
2023-06-19T02:13:00.551Z,557.94
2023-06-19T02:13:11.549Z,557.93
2023-06-19T02:13:22.579Z,557.91
2023-06-19T02:13:33.569Z,557.97
2023-06-19T02:13:44.573Z,557.99
2023-06-19T02:13:55.568Z,558.02
2023-06-19T02:14:06.571Z,557.95
2023-06-19T02:14:17.568Z,557.93
2023-06-19T02:14:28.585Z,557.98
2023-06-19T02:14:39.577Z,557.93
2023-06-19T02:14:50.562Z,557.92
2023-06-19T02:15:01.589Z,558.04
2023-06-19T02:15:13.576Z,558.05
2023-06-19T02:15:24.569Z,557.93
2023-06-19T02:15:35.563Z,557.95
2023-06-19T02:15:46.588Z,557.92
2023-06-19T02:15:57.616Z,557.99
2023-06-19T02:16:09.669Z,558.03
2023-06-19T02:16:21.625Z,558.08
2023-06-19T02:16:33.630Z,558.03
2023-06-19T02:16:44.676Z,558.11
2023-06-19T02:16:55.573Z,558.07
2023-06-19T02:17:06.557Z,558.13
2023-06-19T02:17:17.643Z,558.12
2023-06-19T02:17:28.604Z,558.09
2023-06-19T02:17:40.608Z,558.05
2023-06-19T02:17:52.633Z,558.01
2023-06-19T02:18:03.618Z,558.01
2023-06-19T02:18:14.549Z,558.03
2023-06-19T02:18:25.555Z,558.09
2023-06-19T02:18:36.555Z,558.14
2023-06-19T02:18:47.545Z,558.12
2023-06-19T02:18:58.625Z,558.05
2023-06-19T02:19:10.581Z,558.01
2023-06-19T02:19:21.581Z,558.03
2023-06-19T02:19:32.566Z,558.01
2023-06-19T02:19:43.553Z,558.06